Time,TemperatureF,DewpointF,PressureIn,WindDirection,WindDirectionDegrees,WindSpeedMPH,WindSpeedGustMPH,Humidity,HourlyPrecipIn,Conditions,Clouds,dailyrainin,SoftwareType,DateUTC
2013-01-19 00:00:00,23.6,5.8,30.41,West,275,3.0,3.0,46,0.00,,,0.00,Wunderground v.1.15,2013-01-19 05:00:00,
2013-01-19 00:10:00,23.7,5.9,30.40,West,262,4.0,25.0,46,0.00,,,0.00,Wunderground v.1.15,2013-01-19 05:10:00,
2013-01-19 00:15:00,23.8,6.0,30.39,WNW,285,4.0,25.0,46,0.00,,,0.00,Wunderground v.1.15,2013-01-19 05:15:00,
2013-01-19 00:20:00,23.8,6.0,30.39,WSW,241,5.0,5.0,46,0.00,,,0.00,Wunderground v.1.15,2013-01-19 05:20:00,
2013-01-19 00:25:00,23.9,6.1,30.39,WSW,244,5.0,25.0,46,0.00,,,0.00,Wunderground v.1.15,2013-01-19 05:25:00,
2013-01-19 00:30:00,24.0,6.2,30.39,WNW,283,4.0,25.0,46,0.00,,,0.00,Wunderground v.1.15,2013-01-19 05:30:00,
2013-01-19 00:40:00,24.3,6.0,30.38,WSW,239,5.0,5.0,45,0.00,,,0.00,Wunderground v.1.15,2013-01-19 05:40:00,
2013-01-19 00:45:00,24.3,6.5,30.38,WNW,295,5.0,25.0,46,0.00,,,0.00,Wunderground v.1.15,2013-01-19 05:45:00,
2013-01-19 00:50:00,24.3,6.5,30.39,West,280,5.0,25.0,46,0.00,,,0.00,Wunderground v.1.15,2013-01-19 05:50:00,
2013-01-19 01:00:00,24.4,6.1,30.39,West,266,6.0,6.0,45,0.00,,,0.00,Wunderground v.1.15,2013-01-19 06:00:00,
2013-01-19 01:05:00,24.5,6.2,30.39,West,275,6.0,25.0,45,0.00,,,0.00,Wunderground v.1.15,2013-01-19 06:05:00,
2013-01-19 01:10:00,24.7,6.8,30.39,SW,215,5.0,5.0,46,0.00,,,0.00,Wunderground v.1.15,2013-01-19 06:10:00,
2013-01-19 01:15:00,24.8,6.9,30.38,West,271,5.0,25.0,46,0.00,,,0.00,Wunderground v.1.15,2013-01-19 06:15:00,
2013-01-19 01:20:00,24.9,7.5,30.38,WSW,245,4.0,25.0,47,0.00,,,0.00,Wunderground v.1.15,2013-01-19 06:20:00,
2013-01-19 01:25:00,25.0,7.6,30.37,WNW,284,4.0,25.0,47,0.00,,,0.00,Wunderground v.1.15,2013-01-19 06:25:00,
2013-01-19 01:30:00,25.0,8.0,30.37,West,268,4.0,4.0,48,0.00,,,0.00,Wunderground v.1.15,2013-01-19 06:30:00,
2013-01-19 01:34:00,25.2,8.7,30.36,WNW,285,4.0,25.0,49,0.00,,,0.00,Wunderground v.1.15,2013-01-19 06:34:00,
2013-01-19 01:40:00,25.2,8.7,30.37,WSW,252,4.0,25.0,49,0.00,,,0.00,Wunderground v.1.15,2013-01-19 06:40:00,
2013-01-19 01:45:00,25.4,9.3,30.37,WSW,242,4.0,25.0,50,0.00,,,0.00,Wunderground v.1.15,2013-01-19 06:45:00,
2013-01-19 01:50:00,25.6,9.5,30.36,WNW,302,3.0,3.0,50,0.00,,,0.00,Wunderground v.1.15,2013-01-19 06:50:00,
2013-01-19 01:55:00,25.7,9.6,30.36,WNW,291,3.0,25.0,50,0.00,,,0.00,Wunderground v.1.15,2013-01-19 06:55:00,
2013-01-19 02:00:00,25.9,10.2,30.36,WNW,283,3.0,3.0,51,0.00,,,0.00,Wunderground v.1.15,2013-01-19 07:00:00,
2013-01-19 02:05:00,26.0,10.3,30.36,WSW,247,4.0,4.0,51,0.00,,,0.00,Wunderground v.1.15,2013-01-19 07:05:00,
2013-01-19 02:10:00,25.8,10.1,30.36,WNW,287,6.0,6.0,51,0.00,,,0.00,Wunderground v.1.15,2013-01-19 07:10:00,
2013-01-19 02:15:00,25.7,10.5,30.36,SW,230,5.0,25.0,52,0.00,,,0.00,Wunderground v.1.15,2013-01-19 07:15:00,
2013-01-19 02:20:00,25.9,10.7,30.35,WNW,286,3.0,3.0,52,0.00,,,0.00,Wunderground v.1.15,2013-01-19 07:20:00,
2013-01-19 02:25:00,26.1,10.9,30.34,West,269,3.0,4.0,52,0.00,,,0.00,Wunderground v.1.15,2013-01-19 07:25:00,
2013-01-19 02:30:00,26.2,10.9,30.34,West,265,4.0,4.0,52,0.00,,,0.00,Wunderground v.1.15,2013-01-19 07:30:00,
2013-01-19 02:35:00,26.3,11.5,30.33,WNW,299,3.0,25.0,53,0.00,,,0.00,Wunderground v.1.15,2013-01-19 07:35:00,
2013-01-19 02:44:00,26.6,11.7,30.33,West,275,4.0,25.0,53,0.00,,,0.00,Wunderground v.1.15,2013-01-19 07:44:00,
2013-01-19 02:49:00,26.7,12.3,30.32,North,9,4.0,4.0,54,0.00,,,0.00,Wunderground v.1.15,2013-01-19 07:49:00,
2013-01-19 02:54:00,26.9,12.0,30.32,West,265,4.0,25.0,53,0.00,,,0.00,Wunderground v.1.15,2013-01-19 07:54:00,
2013-01-19 02:59:00,26.9,12.5,30.32,West,267,4.0,25.0,54,0.00,,,0.00,Wunderground v.1.15,2013-01-19 07:59:00,
2013-01-19 03:04:00,27.0,13.0,30.32,West,274,3.0,25.0,55,0.00,,,0.00,Wunderground v.1.15,2013-01-19 08:04:00,
2013-01-19 03:09:00,27.1,13.1,30.31,WSW,237,3.0,25.0,55,0.00,,,0.00,Wunderground v.1.15,2013-01-19 08:09:00,
2013-01-19 03:15:00,27.2,13.1,30.31,WNW,299,4.0,25.0,55,0.00,,,0.00,Wunderground v.1.15,2013-01-19 08:15:00,
2013-01-19 03:20:00,27.2,13.1,30.31,WNW,291,5.0,25.0,55,0.00,,,0.00,Wunderground v.1.15,2013-01-19 08:20:00,
2013-01-19 03:25:00,27.4,13.3,30.31,WSW,248,5.0,25.0,55,0.00,,,0.00,Wunderground v.1.15,2013-01-19 08:25:00,
2013-01-19 03:30:00,27.5,13.4,30.31,West,269,4.0,4.0,55,0.00,,,0.00,Wunderground v.1.15,2013-01-19 08:30:00,
2013-01-19 03:35:00,27.6,13.9,30.31,WSW,255,3.0,25.0,56,0.00,,,0.00,Wunderground v.1.15,2013-01-19 08:35:00,
2013-01-19 03:40:00,27.7,14.0,30.30,West,261,5.0,25.0,56,0.00,,,0.00,Wunderground v.1.15,2013-01-19 08:40:00,
2013-01-19 03:45:00,27.9,14.6,30.30,WNW,291,6.0,25.0,57,0.00,,,0.00,Wunderground v.1.15,2013-01-19 08:45:00,
2013-01-19 03:50:00,28.0,14.7,30.30,West,275,6.0,6.0,57,0.00,,,0.00,Wunderground v.1.15,2013-01-19 08:50:00,
2013-01-19 03:55:00,28.2,14.9,30.30,WSW,246,6.0,7.0,57,0.00,,,0.00,Wunderground v.1.15,2013-01-19 08:55:00,
2013-01-19 04:00:00,28.3,15.4,30.29,WSW,258,6.0,6.0,58,0.00,,,0.00,Wunderground v.1.15,2013-01-19 09:00:00,
2013-01-19 04:04:00,28.5,15.6,30.29,WSW,242,5.0,25.0,58,0.00,,,0.00,Wunderground v.1.15,2013-01-19 09:04:00,
2013-01-19 04:10:00,28.7,15.8,30.28,SW,232,5.0,5.0,58,0.00,,,0.00,Wunderground v.1.15,2013-01-19 09:10:00,
2013-01-19 04:14:00,28.9,16.4,30.28,West,273,5.0,7.0,59,0.00,,,0.00,Wunderground v.1.15,2013-01-19 09:14:00,
2013-01-19 04:19:00,28.9,16.4,30.28,SW,219,6.0,25.0,59,0.00,,,0.00,Wunderground v.1.15,2013-01-19 09:19:00,
2013-01-19 04:24:00,29.0,16.8,30.28,WNW,291,7.0,25.0,60,0.00,,,0.00,Wunderground v.1.15,2013-01-19 09:24:00,
2013-01-19 04:30:00,29.0,16.8,30.27,West,276,8.0,25.0,60,0.00,,,0.00,Wunderground v.1.15,2013-01-19 09:30:00,
2013-01-19 04:35:00,29.1,17.3,30.27,WNW,287,8.0,25.0,61,0.00,,,0.00,Wunderground v.1.15,2013-01-19 09:35:00,
2013-01-19 04:40:00,29.3,17.5,30.26,West,275,7.0,7.0,61,0.00,,,0.00,Wunderground v.1.15,2013-01-19 09:40:00,
2013-01-19 04:45:00,29.4,18.0,30.26,WNW,292,8.0,8.0,62,0.00,,,0.00,Wunderground v.1.15,2013-01-19 09:45:00,
2013-01-19 04:50:00,29.6,18.2,30.26,WSW,252,8.0,8.0,62,0.00,,,0.00,Wunderground v.1.15,2013-01-19 09:50:00,
2013-01-19 04:55:00,29.7,18.3,30.26,West,267,7.0,25.0,62,0.00,,,0.00,Wunderground v.1.15,2013-01-19 09:55:00,
2013-01-19 05:05:00,30.1,19.0,30.25,WSW,245,8.0,25.0,63,0.00,,,0.00,Wunderground v.1.15,2013-01-19 10:05:00,
2013-01-19 05:10:00,30.3,19.2,30.24,WNW,296,9.0,9.0,63,0.00,,,0.00,Wunderground v.1.15,2013-01-19 10:10:00,
2013-01-19 05:15:00,30.4,19.3,30.24,NW,315,8.0,25.0,63,0.00,,,0.00,Wunderground v.1.15,2013-01-19 10:15:00,
2013-01-19 05:20:00,30.6,19.5,30.24,WNW,286,8.0,25.0,63,0.00,,,0.00,Wunderground v.1.15,2013-01-19 10:20:00,
2013-01-19 05:25:00,30.7,19.6,30.25,WNW,292,9.0,25.0,63,0.00,,,0.00,Wunderground v.1.15,2013-01-19 10:25:00,
2013-01-19 05:34:00,31.0,19.9,30.25,West,272,8.0,25.0,63,0.00,,,0.00,Wunderground v.1.15,2013-01-19 10:34:00,
2013-01-19 05:39:00,31.1,20.3,30.24,West,266,8.0,25.0,64,0.00,,,0.00,Wunderground v.1.15,2013-01-19 10:39:00,
2013-01-19 05:45:00,31.4,20.2,30.23,West,277,8.0,25.0,63,0.00,,,0.00,Wunderground v.1.15,2013-01-19 10:45:00,
2013-01-19 05:54:00,31.6,20.8,30.23,West,275,7.0,25.0,64,0.00,,,0.00,Wunderground v.1.15,2013-01-19 10:54:00,
2013-01-19 05:59:00,31.7,20.9,30.23,WNW,300,7.0,25.0,64,0.00,,,0.00,Wunderground v.1.15,2013-01-19 10:59:00,
2013-01-19 06:04:00,31.9,21.1,30.23,WSW,253,7.0,25.0,64,0.00,,,0.00,Wunderground v.1.15,2013-01-19 11:04:00,
2013-01-19 06:09:00,32.0,21.2,30.23,West,273,8.0,25.0,64,0.00,,,0.00,Wunderground v.1.15,2013-01-19 11:09:00,
2013-01-19 07:49:00,34.1,23.2,30.20,SW,236,9.0,25.0,64,0.00,,,0.00,Wunderground v.1.15,2013-01-19 12:49:00,
2013-01-19 07:54:00,34.3,23.4,30.20,West,281,8.0,25.0,64,0.00,,,0.00,Wunderground v.1.15,2013-01-19 12:54:00,
2013-01-19 08:00:00,34.4,23.5,30.20,West,265,9.0,25.0,64,0.00,,,0.00,Wunderground v.1.15,2013-01-19 13:00:00,
2013-01-19 08:05:00,34.6,23.7,30.20,WNW,287,9.0,25.0,64,0.00,,,0.00,Wunderground v.1.15,2013-01-19 13:05:00,
2013-01-19 08:10:00,34.8,23.9,30.20,WNW,285,9.0,9.0,64,0.00,,,0.00,Wunderground v.1.15,2013-01-19 13:10:00,
2013-01-19 08:15:00,35.1,24.1,30.20,WNW,284,10.0,10.0,64,0.00,,,0.00,Wunderground v.1.15,2013-01-19 13:15:00,
2013-01-19 08:19:00,35.2,24.2,30.20,SSW,210,9.0,25.0,64,0.00,,,0.00,Wunderground v.1.15,2013-01-19 13:19:00,
2013-01-19 08:25:00,35.4,24.4,30.19,WNW,300,9.0,25.0,64,0.00,,,0.00,Wunderground v.1.15,2013-01-19 13:25:00,
2013-01-19 08:29:00,35.7,24.7,30.19,WNW,293,9.0,25.0,64,0.00,,,0.00,Wunderground v.1.15,2013-01-19 13:29:00,
2013-01-19 08:35:00,35.9,24.9,30.19,West,260,10.0,25.0,64,0.00,,,0.00,Wunderground v.1.15,2013-01-19 13:35:00,
2013-01-19 08:40:00,36.1,25.1,30.19,West,280,11.0,11.0,64,0.00,,,0.00,Wunderground v.1.15,2013-01-19 13:40:00,
2013-01-19 08:45:00,36.4,25.4,30.19,WNW,288,10.0,25.0,64,0.00,,,0.00,Wunderground v.1.15,2013-01-19 13:45:00,
2013-01-19 08:50:00,36.6,25.6,30.19,WNW,294,10.0,25.0,64,0.00,,,0.00,Wunderground v.1.15,2013-01-19 13:50:00,
2013-01-19 08:54:00,36.9,25.9,30.19,WNW,286,10.0,25.0,64,0.00,,,0.00,Wunderground v.1.15,2013-01-19 13:54:00,
2013-01-19 08:59:00,37.1,25.7,30.19,WSW,253,10.0,10.0,63,0.00,,,0.00,Wunderground v.1.15,2013-01-19 13:59:00,
2013-01-19 09:04:00,37.4,25.9,30.19,West,273,11.0,11.0,63,0.00,,,0.00,Wunderground v.1.15,2013-01-19 14:04:00,
2013-01-19 09:09:00,37.6,26.1,30.19,WNW,286,11.0,11.0,63,0.00,,,0.00,Wunderground v.1.15,2013-01-19 14:09:00,
2013-01-19 09:14:00,37.8,26.3,30.19,West,271,10.0,25.0,63,0.00,,,0.00,Wunderground v.1.15,2013-01-19 14:14:00,
2013-01-19 09:19:00,38.2,26.7,30.18,West,267,11.0,25.0,63,0.00,,,0.00,Wunderground v.1.15,2013-01-19 14:19:00,
2013-01-19 09:24:00,38.5,26.6,30.19,SW,227,12.0,25.0,62,0.00,,,0.00,Wunderground v.1.15,2013-01-19 14:24:00,
2013-01-19 09:29:00,38.7,26.8,30.18,WSW,252,13.0,13.0,62,0.00,,,0.00,Wunderground v.1.15,2013-01-19 14:29:00,
2013-01-19 09:34:00,38.9,27.0,30.18,WNW,292,13.0,16.0,62,0.00,,,0.00,Wunderground v.1.15,2013-01-19 14:34:00,
2013-01-19 09:40:00,39.1,27.2,30.17,West,277,13.0,13.0,62,0.00,,,0.00,Wunderground v.1.15,2013-01-19 14:40:00,
2013-01-19 09:45:00,39.4,27.5,30.17,NNW,333,12.0,25.0,62,0.00,,,0.00,Wunderground v.1.15,2013-01-19 14:45:00,
2013-01-19 09:50:00,39.8,27.4,30.17,WSW,244,12.0,25.0,61,0.00,,,0.00,Wunderground v.1.15,2013-01-19 14:50:00,
2013-01-19 09:55:00,40.2,27.8,30.17,WNW,300,11.0,25.0,61,0.00,,,0.00,Wunderground v.1.15,2013-01-19 14:55:00,
2013-01-19 10:00:00,40.5,27.7,30.17,WNW,303,10.0,10.0,60,0.00,,,0.00,Wunderground v.1.15,2013-01-19 15:00:00,
2013-01-19 10:04:00,40.7,27.5,30.16,West,263,11.0,11.0,59,0.00,,,0.00,Wunderground v.1.15,2013-01-19 15:04:00,
2013-01-19 10:09:00,41.0,27.3,30.16,WNW,296,12.0,25.0,58,0.00,,,0.00,Wunderground v.1.15,2013-01-19 15:09:00,
2013-01-19 10:15:00,41.3,27.6,30.16,West,273,11.0,25.0,58,0.00,,,0.00,Wunderground v.1.15,2013-01-19 15:15:00,
2013-01-19 10:20:00,41.6,27.5,30.16,NW,309,11.0,11.0,57,0.00,,,0.00,Wunderground v.1.15,2013-01-19 15:20:00,
2013-01-19 10:25:00,41.9,27.3,30.16,West,278,10.0,12.0,56,0.00,,,0.00,Wunderground v.1.15,2013-01-19 15:25:00,
2013-01-19 10:29:00,42.0,27.0,30.15,WNW,286,11.0,25.0,55,0.00,,,0.00,Wunderground v.1.15,2013-01-19 15:29:00,
2013-01-19 10:35:00,42.1,27.1,30.14,West,267,13.0,25.0,55,0.00,,,0.00,Wunderground v.1.15,2013-01-19 15:35:00,
2013-01-19 10:40:00,42.2,27.2,30.14,WNW,283,12.0,12.0,55,0.00,,,0.00,Wunderground v.1.15,2013-01-19 15:40:00,
2013-01-19 10:45:00,42.3,26.8,30.13,WSW,254,13.0,13.0,54,0.00,,,0.00,Wunderground v.1.15,2013-01-19 15:45:00,
2013-01-19 10:50:00,42.5,27.0,30.13,West,265,13.0,13.0,54,0.00,,,0.00,Wunderground v.1.15,2013-01-19 15:50:00,
2013-01-19 10:55:00,42.6,26.6,30.13,West,269,11.0,14.0,53,0.00,,,0.00,Wunderground v.1.15,2013-01-19 15:55:00,
2013-01-19 11:00:00,42.6,26.6,30.12,SSE,167,14.0,14.0,53,0.00,,,0.00,Wunderground v.1.15,2013-01-19 16:00:00,
2013-01-19 11:05:00,42.7,26.7,30.12,West,263,15.0,15.0,53,0.00,,,0.00,Wunderground v.1.15,2013-01-19 16:05:00,
2013-01-19 11:10:00,42.9,26.5,30.11,WNW,285,13.0,25.0,52,0.00,,,0.00,Wunderground v.1.15,2013-01-19 16:10:00,
2013-01-19 11:15:00,43.2,26.3,30.11,West,276,13.0,25.0,51,0.00,,,0.00,Wunderground v.1.15,2013-01-19 16:15:00,
2013-01-19 11:20:00,43.3,26.4,30.10,West,267,13.0,25.0,51,0.00,,,0.00,Wunderground v.1.15,2013-01-19 16:20:00,
2013-01-19 11:25:00,43.6,26.2,30.10,WNW,302,12.0,25.0,50,0.00,,,0.00,Wunderground v.1.15,2013-01-19 16:25:00,
2013-01-19 11:30:00,43.8,26.3,30.09,WNW,298,11.0,11.0,50,0.00,,,0.00,Wunderground v.1.15,2013-01-19 16:30:00,
2013-01-19 11:35:00,44.2,26.2,30.09,WNW,294,11.0,14.0,49,0.00,,,0.00,Wunderground v.1.15,2013-01-19 16:35:00,
2013-01-19 11:45:00,44.6,26.1,30.08,WNW,295,13.0,25.0,48,0.00,,,0.00,Wunderground v.1.15,2013-01-19 16:45:00,
2013-01-19 11:50:00,44.7,25.7,30.07,WNW,293,11.0,11.0,47,0.00,,,0.00,Wunderground v.1.15,2013-01-19 16:50:00,
2013-01-19 11:55:00,44.9,25.9,30.07,West,273,13.0,13.0,47,0.00,,,0.00,Wunderground v.1.15,2013-01-19 16:55:00,
2013-01-19 12:00:00,45.1,26.1,30.07,West,279,13.0,13.0,47,0.00,,,0.00,Wunderground v.1.15,2013-01-19 17:00:00,
2013-01-19 12:01:00,45.2,25.6,30.06,WNW,286,14.0,24.0,46,0.00,,,0.00,Wunderground v.1.15,2013-01-19 17:01:00,
2013-01-19 12:05:00,45.4,25.8,30.06,West,273,10.0,24.0,46,0.00,,,0.00,Wunderground v.1.15,2013-01-19 17:05:00,
2013-01-19 12:06:00,45.4,25.8,30.06,West,267,8.0,24.0,46,0.00,,,0.00,Wunderground v.1.15,2013-01-19 17:06:00,
2013-01-19 12:12:00,45.6,25.5,30.06,WNW,282,10.0,13.0,45,0.00,,,0.00,Wunderground v.1.15,2013-01-19 17:12:00,
2013-01-19 12:13:00,45.6,25.5,30.06,West,269,13.0,21.0,45,0.00,,,0.00,Wunderground v.1.15,2013-01-19 17:13:00,
2013-01-19 12:18:00,45.8,26.2,30.05,SW,234,11.0,21.0,46,0.00,,,0.00,Wunderground v.1.15,2013-01-19 17:18:00,
2013-01-19 12:19:00,45.8,26.2,30.05,West,273,4.0,21.0,46,0.00,,,0.00,Wunderground v.1.15,2013-01-19 17:19:00,
2013-01-19 12:24:00,45.9,26.3,30.05,WNW,298,15.0,23.0,46,0.00,,,0.00,Wunderground v.1.15,2013-01-19 17:24:00,
2013-01-19 12:25:00,45.9,26.3,30.05,West,269,11.0,23.0,46,0.00,,,0.00,Wunderground v.1.15,2013-01-19 17:25:00,
2013-01-19 12:29:00,46.0,26.4,30.05,West,264,14.0,23.0,46,0.00,,,0.00,Wunderground v.1.15,2013-01-19 17:29:00,
2013-01-19 12:30:00,46.0,25.8,30.05,West,280,9.0,13.0,45,0.00,,,0.00,Wunderground v.1.15,2013-01-19 17:30:00,
2013-01-19 12:34:00,46.1,26.4,30.05,NW,311,8.0,15.0,46,0.00,,,0.00,Wunderground v.1.15,2013-01-19 17:34:00,
2013-01-19 12:35:00,46.3,26.6,30.05,West,275,17.0,17.0,46,0.00,,,0.00,Wunderground v.1.15,2013-01-19 17:35:00,
2013-01-19 12:39:00,46.3,26.1,30.05,West,271,8.0,17.0,45,0.00,,,0.00,Wunderground v.1.15,2013-01-19 17:39:00,
2013-01-19 12:43:00,46.4,26.2,30.04,West,259,23.0,23.0,45,0.00,,,0.00,Wunderground v.1.15,2013-01-19 17:43:00,
2013-01-19 12:44:00,46.4,26.2,30.04,West,275,13.0,23.0,45,0.00,,,0.00,Wunderground v.1.15,2013-01-19 17:44:00,
2013-01-19 12:48:00,46.4,26.2,30.04,WNW,295,8.0,23.0,45,0.00,,,0.00,Wunderground v.1.15,2013-01-19 17:48:00,
2013-01-19 12:49:00,46.4,26.2,30.04,WNW,294,8.0,23.0,45,0.00,,,0.00,Wunderground v.1.15,2013-01-19 17:49:00,
2013-01-19 12:53:00,46.7,26.5,30.04,WSW,250,12.0,15.0,45,0.00,,,0.00,Wunderground v.1.15,2013-01-19 17:53:00,
2013-01-19 12:55:00,46.8,26.0,30.03,WSW,254,18.0,18.0,44,0.00,,,0.00,Wunderground v.1.15,2013-01-19 17:55:00,
2013-01-19 12:59:00,46.9,26.1,30.04,SW,236,8.0,21.0,44,0.00,,,0.00,Wunderground v.1.15,2013-01-19 17:59:00,
2013-01-19 13:00:00,47.0,26.2,30.04,WSW,239,8.0,11.0,44,0.00,,,0.00,Wunderground v.1.15,2013-01-19 18:00:00,
2013-01-19 13:04:00,47.2,26.4,30.03,NW,320,10.0,11.0,44,0.00,,,0.00,Wunderground v.1.15,2013-01-19 18:04:00,
2013-01-19 13:05:00,47.3,26.5,30.03,WNW,292,12.0,13.0,44,0.00,,,0.00,Wunderground v.1.15,2013-01-19 18:05:00,
2013-01-19 13:09:00,47.4,26.0,30.03,West,267,8.0,17.0,43,0.00,,,0.00,Wunderground v.1.15,2013-01-19 18:09:00,
2013-01-19 13:11:00,47.4,26.0,30.03,West,260,12.0,19.0,43,0.00,,,0.00,Wunderground v.1.15,2013-01-19 18:11:00,
2013-01-19 13:14:00,47.4,26.0,30.03,WNW,290,8.0,19.0,43,0.00,,,0.00,Wunderground v.1.15,2013-01-19 18:14:00,
2013-01-19 13:17:00,47.4,26.6,30.03,West,273,8.0,19.0,44,0.00,,,0.00,Wunderground v.1.15,2013-01-19 18:17:00,
2013-01-19 13:19:00,47.6,26.2,30.03,WNW,292,11.0,19.0,43,0.00,,,0.00,Wunderground v.1.15,2013-01-19 18:19:00,
2013-01-19 13:23:00,47.6,26.2,30.02,West,280,18.0,19.0,43,0.00,,,0.00,Wunderground v.1.15,2013-01-19 18:23:00,
2013-01-19 13:24:00,47.6,26.2,30.03,West,277,10.0,19.0,43,0.00,,,0.00,Wunderground v.1.15,2013-01-19 18:24:00,
2013-01-19 13:29:00,47.5,26.1,30.02,SW,229,7.0,20.0,43,0.00,,,0.00,Wunderground v.1.15,2013-01-19 18:29:00,
2013-01-19 13:30:00,47.5,26.1,30.02,WSW,247,7.0,11.0,43,0.00,,,0.00,Wunderground v.1.15,2013-01-19 18:30:00,
2013-01-19 13:34:00,47.8,26.4,30.02,WSW,254,11.0,27.0,43,0.00,,,0.00,Wunderground v.1.15,2013-01-19 18:34:00,
2013-01-19 13:35:00,47.9,25.9,30.02,West,279,10.0,27.0,42,0.00,,,0.00,Wunderground v.1.15,2013-01-19 18:35:00,
2013-01-19 13:40:00,48.4,25.8,30.01,WNW,286,17.0,17.0,41,0.00,,,0.00,Wunderground v.1.15,2013-01-19 18:40:00,
2013-01-19 13:45:00,48.7,25.4,30.02,WNW,286,12.0,20.0,40,0.00,,,0.00,Wunderground v.1.15,2013-01-19 18:45:00,
2013-01-19 13:50:00,49.0,26.3,30.01,WNW,292,11.0,11.0,41,0.00,,,0.00,Wunderground v.1.15,2013-01-19 18:50:00,
2013-01-19 13:51:00,49.0,26.3,30.01,West,275,8.0,11.0,41,0.00,,,0.00,Wunderground v.1.15,2013-01-19 18:51:00,
2013-01-19 13:56:00,49.0,25.7,30.01,NW,304,6.0,17.0,40,0.00,,,0.00,Wunderground v.1.15,2013-01-19 18:56:00,
2013-01-19 13:59:00,49.1,25.8,30.01,West,277,13.0,21.0,40,0.00,,,0.00,Wunderground v.1.15,2013-01-19 18:59:00,
2013-01-19 14:02:00,49.1,25.8,30.01,WNW,284,8.0,19.0,40,0.00,,,0.00,Wunderground v.1.15,2013-01-19 19:02:00,
2013-01-19 14:04:00,49.1,25.8,30.02,West,265,19.0,19.0,40,0.00,,,0.00,Wunderground v.1.15,2013-01-19 19:04:00,
2013-01-19 14:08:00,49.1,26.4,30.01,WNW,285,10.0,19.0,41,0.00,,,0.00,Wunderground v.1.15,2013-01-19 19:08:00,
2013-01-19 14:09:00,49.1,26.4,30.01,West,267,13.0,19.0,41,0.00,,,0.00,Wunderground v.1.15,2013-01-19 19:09:00,
2013-01-19 14:14:00,49.1,25.8,30.01,West,275,9.0,20.0,40,0.00,,,0.00,Wunderground v.1.15,2013-01-19 19:14:00,
2013-01-19 14:20:00,49.3,26.0,30.00,West,281,9.0,13.0,40,0.00,,,0.00,Wunderground v.1.15,2013-01-19 19:20:00,
2013-01-19 14:25:00,49.4,25.4,30.01,WSW,238,16.0,19.0,39,0.00,,,0.00,Wunderground v.1.15,2013-01-19 19:25:00,
2013-01-19 14:26:00,49.4,25.4,30.01,WNW,296,12.0,19.0,39,0.00,,,0.00,Wunderground v.1.15,2013-01-19 19:26:00,
2013-01-19 14:30:00,49.6,25.0,30.00,WNW,300,13.0,23.0,38,0.00,,,0.00,Wunderground v.1.15,2013-01-19 19:30:00,
2013-01-19 14:31:00,49.5,24.9,30.01,WNW,294,16.0,23.0,38,0.00,,,0.00,Wunderground v.1.15,2013-01-19 19:31:00,
2013-01-19 14:35:00,49.5,24.9,30.01,NNW,344,5.0,23.0,38,0.00,,,0.00,Wunderground v.1.15,2013-01-19 19:35:00,
2013-01-19 14:37:00,49.6,25.0,30.01,WSW,258,18.0,23.0,38,0.00,,,0.00,Wunderground v.1.15,2013-01-19 19:37:00,
2013-01-19 14:40:00,49.6,25.0,30.01,WSW,257,18.0,18.0,38,0.00,,,0.00,Wunderground v.1.15,2013-01-19 19:40:00,
2013-01-19 14:42:00,49.5,24.9,30.01,WNW,290,11.0,18.0,38,0.00,,,0.00,Wunderground v.1.15,2013-01-19 19:42:00,
2013-01-19 14:47:00,49.4,24.8,30.01,West,266,10.0,20.0,38,0.00,,,0.00,Wunderground v.1.15,2013-01-19 19:47:00,
2013-01-19 14:52:00,49.3,24.7,30.00,SW,226,13.0,16.0,38,0.00,,,0.00,Wunderground v.1.15,2013-01-19 19:52:00,
2013-01-19 14:53:00,49.3,24.7,30.00,SW,214,20.0,20.0,38,0.00,,,0.00,Wunderground v.1.15,2013-01-19 19:53:00,
2013-01-19 14:58:00,49.2,24.6,30.00,WSW,252,7.0,21.0,38,0.00,,,0.00,Wunderground v.1.15,2013-01-19 19:58:00,
2013-01-19 14:59:00,49.2,24.6,30.00,West,267,17.0,21.0,38,0.00,,,0.00,Wunderground v.1.15,2013-01-19 19:59:00,
2013-01-19 15:03:00,48.9,24.4,30.00,WNW,292,25.0,25.0,38,0.00,,,0.00,Wunderground v.1.15,2013-01-19 20:03:00,
2013-01-19 15:05:00,48.8,24.3,30.00,WSW,252,7.0,26.0,38,0.00,,,0.00,Wunderground v.1.15,2013-01-19 20:05:00,
2013-01-19 15:08:00,48.9,24.4,30.00,WNW,284,13.0,26.0,38,0.00,,,0.00,Wunderground v.1.15,2013-01-19 20:08:00,
2013-01-19 15:10:00,48.9,24.4,30.00,WNW,292,10.0,15.0,38,0.00,,,0.00,Wunderground v.1.15,2013-01-19 20:10:00,
2013-01-19 15:14:00,48.8,24.3,30.01,NW,313,11.0,23.0,38,0.00,,,0.00,Wunderground v.1.15,2013-01-19 20:14:00,
2013-01-19 15:16:00,48.8,24.3,30.01,WNW,299,12.0,23.0,38,0.00,,,0.00,Wunderground v.1.15,2013-01-19 20:16:00,
2013-01-19 15:20:00,48.7,24.8,30.01,WNW,286,16.0,16.0,39,0.00,,,0.00,Wunderground v.1.15,2013-01-19 20:20:00,
2013-01-19 15:22:00,48.7,24.8,30.00,WNW,292,20.0,20.0,39,0.00,,,0.00,Wunderground v.1.15,2013-01-19 20:22:00,
2013-01-19 15:25:00,48.7,24.8,30.00,West,280,18.0,21.0,39,0.00,,,0.00,Wunderground v.1.15,2013-01-19 20:25:00,
2013-01-19 15:27:00,48.7,24.8,30.00,WNW,282,14.0,21.0,39,0.00,,,0.00,Wunderground v.1.15,2013-01-19 20:27:00,
2013-01-19 15:30:00,48.5,24.6,30.00,WSW,250,10.0,17.0,39,0.00,,,0.00,Wunderground v.1.15,2013-01-19 20:30:00,
2013-01-19 15:32:00,48.5,24.6,30.00,West,274,13.0,23.0,39,0.00,,,0.00,Wunderground v.1.15,2013-01-19 20:32:00,
2013-01-19 15:35:00,48.4,24.6,30.00,West,277,20.0,25.0,39,0.00,,,0.00,Wunderground v.1.15,2013-01-19 20:35:00,
2013-01-19 15:37:00,48.4,24.6,30.00,WNW,287,14.0,25.0,39,0.00,,,0.00,Wunderground v.1.15,2013-01-19 20:37:00,
2013-01-19 15:42:00,48.2,24.4,30.00,West,268,15.0,24.0,39,0.00,,,0.00,Wunderground v.1.15,2013-01-19 20:42:00,
2013-01-19 15:44:00,48.2,24.4,30.00,WNW,289,16.0,24.0,39,0.00,,,0.00,Wunderground v.1.15,2013-01-19 20:44:00,
2013-01-19 15:47:00,48.1,24.3,30.00,WNW,291,10.0,24.0,39,0.00,,,0.00,Wunderground v.1.15,2013-01-19 20:47:00,
2013-01-19 15:49:00,48.1,24.9,30.00,WNW,296,4.0,24.0,40,0.00,,,0.00,Wunderground v.1.15,2013-01-19 20:49:00,
2013-01-19 15:53:00,48.1,24.9,30.00,WNW,285,13.0,13.0,40,0.00,,,0.00,Wunderground v.1.15,2013-01-19 20:53:00,
2013-01-19 15:54:00,48.1,24.9,30.00,WNW,300,9.0,14.0,40,0.00,,,0.00,Wunderground v.1.15,2013-01-19 20:54:00,
2013-01-19 15:59:00,48.2,25.0,30.00,WNW,286,17.0,19.0,40,0.00,,,0.00,Wunderground v.1.15,2013-01-19 20:59:00,
2013-01-19 16:04:00,47.9,24.7,30.00,WNW,286,9.0,18.0,40,0.00,,,0.00,Wunderground v.1.15,2013-01-19 21:04:00,
2013-01-19 16:09:00,47.9,24.7,30.00,WNW,285,13.0,19.0,40,0.00,,,0.00,Wunderground v.1.15,2013-01-19 21:09:00,
2013-01-19 16:10:00,47.8,25.2,30.00,WNW,283,9.0,11.0,41,0.00,,,0.00,Wunderground v.1.15,2013-01-19 21:10:00,
2013-01-19 16:14:00,47.6,25.0,30.00,WNW,295,16.0,18.0,41,0.00,,,0.00,Wunderground v.1.15,2013-01-19 21:14:00,
2013-01-19 16:16:00,47.5,24.9,30.00,WNW,282,8.0,19.0,41,0.00,,,0.00,Wunderground v.1.15,2013-01-19 21:16:00,
2013-01-19 16:19:00,47.5,24.9,30.01,West,265,9.0,19.0,41,0.00,,,0.00,Wunderground v.1.15,2013-01-19 21:19:00,
2013-01-19 16:22:00,47.5,24.9,30.00,West,264,10.0,15.0,41,0.00,,,0.00,Wunderground v.1.15,2013-01-19 21:22:00,
2013-01-19 16:25:00,47.3,24.8,30.00,WNW,288,10.0,17.0,41,0.00,,,0.00,Wunderground v.1.15,2013-01-19 21:25:00,
2013-01-19 16:27:00,47.2,25.3,30.00,West,267,10.0,17.0,42,0.00,,,0.00,Wunderground v.1.15,2013-01-19 21:27:00,
2013-01-19 16:30:00,47.1,25.2,30.00,WNW,292,13.0,13.0,42,0.00,,,0.00,Wunderground v.1.15,2013-01-19 21:30:00,
2013-01-19 16:32:00,47.0,25.1,30.00,NW,304,14.0,18.0,42,0.00,,,0.00,Wunderground v.1.15,2013-01-19 21:32:00,
2013-01-19 16:36:00,46.8,24.9,30.01,WNW,286,12.0,25.0,42,0.00,,,0.00,Wunderground v.1.15,2013-01-19 21:36:00,
2013-01-19 16:38:00,46.7,25.4,30.00,WNW,296,8.0,25.0,43,0.00,,,0.00,Wunderground v.1.15,2013-01-19 21:38:00,
2013-01-19 16:42:00,46.7,25.4,30.01,West,281,7.0,12.0,43,0.00,,,0.00,Wunderground v.1.15,2013-01-19 21:42:00,
2013-01-19 16:43:00,46.6,25.3,30.00,West,263,10.0,12.0,43,0.00,,,0.00,Wunderground v.1.15,2013-01-19 21:43:00,
2013-01-19 16:47:00,46.5,25.2,30.00,WNW,290,6.0,14.0,43,0.00,,,0.00,Wunderground v.1.15,2013-01-19 21:47:00,
2013-01-19 16:48:00,46.4,25.6,30.00,WNW,302,10.0,14.0,44,0.00,,,0.00,Wunderground v.1.15,2013-01-19 21:48:00,
2013-01-19 16:52:00,46.3,25.6,30.01,West,279,10.0,12.0,44,0.00,,,0.00,Wunderground v.1.15,2013-01-19 21:52:00,
2013-01-19 16:53:00,46.2,25.5,30.01,WNW,283,8.0,12.0,44,0.00,,,0.00,Wunderground v.1.15,2013-01-19 21:53:00,
2013-01-19 16:57:00,46.0,25.3,30.01,WNW,295,9.0,13.0,44,0.00,,,0.00,Wunderground v.1.15,2013-01-19 21:57:00,
2013-01-19 16:58:00,46.0,25.3,30.01,WNW,294,9.0,17.0,44,0.00,,,0.00,Wunderground v.1.15,2013-01-19 21:58:00,
2013-01-19 17:03:00,45.9,25.7,30.01,West,270,11.0,12.0,45,0.00,,,0.00,Wunderground v.1.15,2013-01-19 22:03:00,
2013-01-19 17:05:00,45.9,25.7,30.00,WNW,284,9.0,12.0,45,0.00,,,0.00,Wunderground v.1.15,2013-01-19 22:05:00,
2013-01-19 17:08:00,45.8,25.6,30.01,West,260,4.0,12.0,45,0.00,,,0.00,Wunderground v.1.15,2013-01-19 22:08:00,
2013-01-19 17:13:00,45.7,25.5,30.01,West,263,12.0,12.0,45,0.00,,,0.00,Wunderground v.1.15,2013-01-19 22:13:00,
2013-01-19 17:18:00,45.5,25.9,30.01,West,281,6.0,12.0,46,0.00,,,0.00,Wunderground v.1.15,2013-01-19 22:18:00,
2013-01-19 17:19:00,45.6,26.0,30.01,WNW,291,9.0,12.0,46,0.00,,,0.00,Wunderground v.1.15,2013-01-19 22:19:00,
2013-01-19 17:23:00,45.4,26.3,30.01,WNW,300,4.0,12.0,47,0.00,,,0.00,Wunderground v.1.15,2013-01-19 22:23:00,
2013-01-19 17:24:00,45.4,26.3,30.01,NW,311,7.0,12.0,47,0.00,,,0.00,Wunderground v.1.15,2013-01-19 22:24:00,
2013-01-19 17:28:00,45.3,26.2,30.01,WNW,287,9.0,12.0,47,0.00,,,0.00,Wunderground v.1.15,2013-01-19 22:28:00,
2013-01-19 17:30:00,45.3,26.2,30.01,WNW,288,7.0,8.0,47,0.00,,,0.00,Wunderground v.1.15,2013-01-19 22:30:00,
2013-01-19 17:33:00,45.3,26.2,30.01,West,264,9.0,9.0,47,0.00,,,0.00,Wunderground v.1.15,2013-01-19 22:33:00,
2013-01-19 17:35:00,45.2,26.7,30.01,West,275,6.0,12.0,48,0.00,,,0.00,Wunderground v.1.15,2013-01-19 22:35:00,
2013-01-19 17:38:00,45.3,26.2,30.01,WNW,292,12.0,12.0,47,0.00,,,0.00,Wunderground v.1.15,2013-01-19 22:38:00,
2013-01-19 17:40:00,45.2,26.7,30.01,WSW,252,13.0,13.0,48,0.00,,,0.00,Wunderground v.1.15,2013-01-19 22:40:00,
2013-01-19 17:44:00,45.1,26.6,30.01,WSW,253,5.0,13.0,48,0.00,,,0.00,Wunderground v.1.15,2013-01-19 22:44:00,
2013-01-19 17:46:00,45.1,26.6,30.01,WNW,285,7.0,13.0,48,0.00,,,0.00,Wunderground v.1.15,2013-01-19 22:46:00,
2013-01-19 17:49:00,45.0,26.5,30.01,WNW,298,5.0,13.0,48,0.00,,,0.00,Wunderground v.1.15,2013-01-19 22:49:00,
2013-01-19 17:51:00,44.9,26.4,30.01,WNW,290,5.0,7.0,48,0.00,,,0.00,Wunderground v.1.15,2013-01-19 22:51:00,
2013-01-19 17:55:00,44.8,26.8,30.01,WNW,293,6.0,10.0,49,0.00,,,0.00,Wunderground v.1.15,2013-01-19 22:55:00,
2013-01-19 17:57:00,44.7,26.7,30.01,WNW,288,6.0,11.0,49,0.00,,,0.00,Wunderground v.1.15,2013-01-19 22:57:00,
2013-01-19 18:01:00,44.8,27.3,30.01,WNW,290,6.0,8.0,50,0.00,,,0.00,Wunderground v.1.15,2013-01-19 23:01:00,
2013-01-19 18:02:00,44.8,26.8,30.01,WNW,287,7.0,10.0,49,0.00,,,0.00,Wunderground v.1.15,2013-01-19 23:02:00,
2013-01-19 18:07:00,44.8,26.8,30.01,WNW,282,6.0,11.0,49,0.00,,,0.00,Wunderground v.1.15,2013-01-19 23:07:00,
2013-01-19 18:12:00,44.6,26.6,30.01,WNW,282,6.0,10.0,49,0.00,,,0.00,Wunderground v.1.15,2013-01-19 23:12:00,
2013-01-19 18:13:00,44.6,26.6,30.01,West,263,6.0,10.0,49,0.00,,,0.00,Wunderground v.1.15,2013-01-19 23:13:00,
2013-01-19 18:18:00,44.5,27.0,30.01,WSW,258,5.0,10.0,50,0.00,,,0.00,Wunderground v.1.15,2013-01-19 23:18:00,
2013-01-19 18:23:00,44.4,26.9,30.01,WNW,283,7.0,10.0,50,0.00,,,0.00,Wunderground v.1.15,2013-01-19 23:23:00,
2013-01-19 18:28:00,44.4,27.4,30.01,WNW,288,6.0,12.0,51,0.00,,,0.00,Wunderground v.1.15,2013-01-19 23:28:00,
2013-01-19 18:34:00,44.3,27.3,30.01,WNW,284,7.0,9.0,51,0.00,,,0.00,Wunderground v.1.15,2013-01-19 23:34:00,
2013-01-19 18:39:00,44.0,27.5,30.01,West,264,8.0,11.0,52,0.00,,,0.00,Wunderground v.1.15,2013-01-19 23:39:00,
2013-01-19 18:44:00,43.9,27.9,30.01,WNW,286,5.0,9.0,53,0.00,,,0.00,Wunderground v.1.15,2013-01-19 23:44:00,
2013-01-19 18:49:00,43.9,27.9,30.01,WNW,299,3.0,9.0,53,0.00,,,0.00,Wunderground v.1.15,2013-01-19 23:49:00,
2013-01-19 18:51:00,43.8,27.8,30.01,WSW,257,9.0,9.0,53,0.00,,,0.00,Wunderground v.1.15,2013-01-19 23:51:00,
2013-01-19 18:54:00,43.8,28.2,30.01,WNW,288,7.0,10.0,54,0.00,,,0.00,Wunderground v.1.15,2013-01-19 23:54:00,
2013-01-19 18:56:00,43.7,28.1,30.01,WNW,295,8.0,10.0,54,0.00,,,0.00,Wunderground v.1.15,2013-01-19 23:56:00,
2013-01-19 19:00:00,43.7,28.1,30.01,WNW,293,6.0,6.0,54,0.00,,,0.00,Wunderground v.1.15,2013-01-20 00:00:00,
2013-01-19 19:03:00,43.6,28.5,30.01,WSW,249,4.0,6.0,55,0.00,,,0.00,Wunderground v.1.15,2013-01-20 00:03:00,
2013-01-19 19:05:00,43.6,28.5,30.01,WNW,284,5.0,6.0,55,0.00,,,0.00,Wunderground v.1.15,2013-01-20 00:05:00,
2013-01-19 19:08:00,43.6,28.5,30.01,WNW,287,4.0,6.0,55,0.00,,,0.00,Wunderground v.1.15,2013-01-20 00:08:00,
2013-01-19 19:10:00,43.5,28.8,30.01,WNW,284,5.0,8.0,56,0.00,,,0.00,Wunderground v.1.15,2013-01-20 00:10:00,
2013-01-19 19:13:00,43.5,28.8,30.01,West,267,9.0,9.0,56,0.00,,,0.00,Wunderground v.1.15,2013-01-20 00:13:00,
2013-01-19 19:19:00,43.4,28.7,30.01,WNW,289,5.0,25.0,56,0.00,,,0.00,Wunderground v.1.15,2013-01-20 00:19:00,
2013-01-19 19:23:00,43.3,29.1,30.01,West,267,5.0,25.0,57,0.00,,,0.00,Wunderground v.1.15,2013-01-20 00:23:00,
2013-01-19 19:24:00,43.3,29.1,30.01,WNW,295,5.0,25.0,57,0.00,,,0.00,Wunderground v.1.15,2013-01-20 00:24:00,
2013-01-19 19:28:00,43.2,29.0,30.01,WNW,289,4.0,25.0,57,0.00,,,0.00,Wunderground v.1.15,2013-01-20 00:28:00,
2013-01-19 19:30:00,43.1,28.9,30.01,WNW,294,4.0,25.0,57,0.00,,,0.00,Wunderground v.1.15,2013-01-20 00:30:00,
2013-01-19 19:34:00,43.0,29.2,30.01,WNW,302,4.0,25.0,58,0.00,,,0.00,Wunderground v.1.15,2013-01-20 00:34:00,
2013-01-19 19:36:00,43.0,29.6,30.01,West,273,4.0,25.0,59,0.00,,,0.00,Wunderground v.1.15,2013-01-20 00:36:00,
2013-01-19 19:39:00,42.9,29.1,30.01,WNW,284,4.0,25.0,58,0.00,,,0.00,Wunderground v.1.15,2013-01-20 00:39:00,
2013-01-19 19:45:00,42.7,29.4,30.00,West,279,4.0,25.0,59,0.00,,,0.00,Wunderground v.1.15,2013-01-20 00:45:00,
2013-01-19 19:46:00,42.7,29.4,30.00,West,280,4.0,25.0,59,0.00,,,0.00,Wunderground v.1.15,2013-01-20 00:46:00,
2013-01-19 19:52:00,42.6,29.7,30.00,WNW,284,4.0,25.0,60,0.00,,,0.00,Wunderground v.1.15,2013-01-20 00:52:00,
2013-01-19 19:53:00,42.6,29.7,30.00,WNW,298,4.0,25.0,60,0.00,,,0.00,Wunderground v.1.15,2013-01-20 00:53:00,
2013-01-19 19:59:00,42.5,29.6,30.00,WNW,302,4.0,25.0,60,0.00,,,0.00,Wunderground v.1.15,2013-01-20 00:59:00,
2013-01-19 20:04:00,42.5,30.4,30.00,West,279,5.0,25.0,62,0.00,,,0.00,Wunderground v.1.15,2013-01-20 01:04:00,
2013-01-19 20:09:00,42.3,30.2,30.00,WNW,290,5.0,25.0,62,0.00,,,0.00,Wunderground v.1.15,2013-01-20 01:09:00,
2013-01-19 20:11:00,42.3,30.2,30.00,WNW,285,5.0,25.0,62,0.00,,,0.00,Wunderground v.1.15,2013-01-20 01:11:00,
2013-01-19 20:14:00,42.1,30.0,30.00,WNW,302,5.0,25.0,62,0.00,,,0.00,Wunderground v.1.15,2013-01-20 01:14:00,
2013-01-19 20:17:00,42.0,30.3,30.00,West,260,4.0,25.0,63,0.00,,,0.00,Wunderground v.1.15,2013-01-20 01:17:00,
2013-01-19 20:22:00,41.9,30.6,30.00,WNW,290,4.0,25.0,64,0.00,,,0.00,Wunderground v.1.15,2013-01-20 01:22:00,
2013-01-19 20:25:00,42.0,30.7,30.00,West,261,4.0,25.0,64,0.00,,,0.00,Wunderground v.1.15,2013-01-20 01:25:00,
2013-01-19 20:29:00,41.9,30.6,30.00,WNW,294,4.0,25.0,64,0.00,,,0.00,Wunderground v.1.15,2013-01-20 01:29:00,
2013-01-19 20:31:00,41.9,31.0,30.00,West,266,5.0,25.0,65,0.00,,,0.00,Wunderground v.1.15,2013-01-20 01:31:00,
2013-01-19 20:37:00,42.0,31.1,30.00,WNW,288,5.0,25.0,65,0.00,,,0.00,Wunderground v.1.15,2013-01-20 01:37:00,
2013-01-19 20:38:00,42.0,31.1,30.00,WSW,248,5.0,25.0,65,0.00,,,0.00,Wunderground v.1.15,2013-01-20 01:38:00,
2013-01-19 20:43:00,41.9,31.0,29.99,WNW,292,5.0,25.0,65,0.00,,,0.00,Wunderground v.1.15,2013-01-20 01:43:00,
2013-01-19 20:44:00,41.9,31.0,29.99,WNW,291,4.0,25.0,65,0.00,,,0.00,Wunderground v.1.15,2013-01-20 01:44:00,
2013-01-19 20:48:00,41.8,31.3,29.99,WNW,284,4.0,25.0,66,0.00,,,0.00,Wunderground v.1.15,2013-01-20 01:48:00,
2013-01-19 20:49:00,41.7,31.2,29.99,West,267,3.0,25.0,66,0.00,,,0.00,Wunderground v.1.15,2013-01-20 01:49:00,
2013-01-19 20:54:00,41.6,31.1,29.99,NW,304,2.0,25.0,66,0.00,,,0.00,Wunderground v.1.15,2013-01-20 01:54:00,
2013-01-19 20:55:00,41.6,31.1,29.99,NW,304,2.0,25.0,66,0.00,,,0.00,Wunderground v.1.15,2013-01-20 01:55:00,
2013-01-19 21:00:00,41.4,31.3,29.99,WNW,298,2.0,2.0,67,0.00,,,0.00,Wunderground v.1.15,2013-01-20 02:00:00,
2013-01-19 21:01:00,41.4,31.3,29.99,West,259,2.0,5.0,67,0.00,,,0.00,Wunderground v.1.15,2013-01-20 02:01:00,
2013-01-19 21:05:00,41.4,31.3,29.98,WSW,249,3.0,25.0,67,0.00,,,0.00,Wunderground v.1.15,2013-01-20 02:05:00,
2013-01-19 21:06:00,41.4,31.3,29.98,West,267,3.0,25.0,67,0.00,,,0.00,Wunderground v.1.15,2013-01-20 02:06:00,
2013-01-19 21:12:00,41.3,31.5,29.98,West,273,3.0,25.0,68,0.00,,,0.00,Wunderground v.1.15,2013-01-20 02:12:00,
2013-01-19 21:14:00,41.2,31.4,29.98,West,273,3.0,25.0,68,0.00,,,0.00,Wunderground v.1.15,2013-01-20 02:14:00,
2013-01-19 21:19:00,41.1,31.7,29.98,WSW,239,3.0,25.0,69,0.00,,,0.00,Wunderground v.1.15,2013-01-20 02:19:00,
2013-01-19 21:23:00,41.1,31.7,29.98,WNW,284,2.0,25.0,69,0.00,,,0.00,Wunderground v.1.15,2013-01-20 02:23:00,
2013-01-19 21:24:00,41.1,31.7,29.97,WNW,284,2.0,25.0,69,0.00,,,0.00,Wunderground v.1.15,2013-01-20 02:24:00,
2013-01-19 21:30:00,41.1,31.7,29.97,WNW,286,2.0,2.0,69,0.00,,,0.00,Wunderground v.1.15,2013-01-20 02:30:00,
2013-01-19 21:36:00,41.3,32.2,29.97,WNW,290,2.0,25.0,70,0.00,,,0.00,Wunderground v.1.15,2013-01-20 02:36:00,
2013-01-19 21:42:00,41.3,31.9,29.97,WNW,291,2.0,25.0,69,0.00,,,0.00,Wunderground v.1.15,2013-01-20 02:42:00,
2013-01-19 21:43:00,41.2,31.8,29.97,WNW,298,3.0,25.0,69,0.00,,,0.00,Wunderground v.1.15,2013-01-20 02:43:00,
2013-01-19 21:49:00,41.3,31.9,29.97,West,271,2.0,25.0,69,0.00,,,0.00,Wunderground v.1.15,2013-01-20 02:49:00,
2013-01-19 21:50:00,41.2,32.2,29.96,WSW,246,2.0,2.0,70,0.00,,,0.00,Wunderground v.1.15,2013-01-20 02:50:00,
2013-01-19 21:55:00,41.2,31.8,29.96,WSW,254,2.0,25.0,69,0.00,,,0.00,Wunderground v.1.15,2013-01-20 02:55:00,
2013-01-19 21:57:00,41.2,31.8,29.96,WNW,295,2.0,25.0,69,0.00,,,0.00,Wunderground v.1.15,2013-01-20 02:57:00,
2013-01-19 22:02:00,41.2,32.2,29.96,West,277,2.0,25.0,70,0.00,,,0.00,Wunderground v.1.15,2013-01-20 03:02:00,
2013-01-19 22:03:00,41.2,32.2,29.96,West,273,2.0,25.0,70,0.00,,,0.00,Wunderground v.1.15,2013-01-20 03:03:00,
2013-01-19 22:09:00,41.2,32.2,29.95,West,280,2.0,25.0,70,0.00,,,0.00,Wunderground v.1.15,2013-01-20 03:09:00,
2013-01-19 22:15:00,41.2,32.2,29.95,West,265,3.0,25.0,70,0.00,,,0.00,Wunderground v.1.15,2013-01-20 03:15:00,
2013-01-19 22:19:00,41.2,32.2,29.95,SW,218,2.0,25.0,70,0.00,,,0.00,Wunderground v.1.15,2013-01-20 03:19:00,
2013-01-19 22:20:00,41.2,32.2,29.95,West,264,2.0,25.0,70,0.00,,,0.00,Wunderground v.1.15,2013-01-20 03:20:00,
2013-01-19 22:26:00,41.2,32.2,29.95,West,268,3.0,25.0,70,0.00,,,0.00,Wunderground v.1.15,2013-01-20 03:26:00,
2013-01-19 22:32:00,41.2,32.5,29.94,WNW,294,3.0,25.0,71,0.00,,,0.00,Wunderground v.1.15,2013-01-20 03:32:00,
2013-01-19 22:36:00,41.2,32.5,29.94,WNW,287,3.0,25.0,71,0.00,,,0.00,Wunderground v.1.15,2013-01-20 03:36:00,
2013-01-19 22:41:00,41.3,32.6,29.94,WNW,284,4.0,25.0,71,0.00,,,0.00,Wunderground v.1.15,2013-01-20 03:41:00,
2013-01-19 22:43:00,41.3,32.6,29.94,WNW,284,4.0,25.0,71,0.00,,,0.00,Wunderground v.1.15,2013-01-20 03:43:00,
2013-01-19 22:47:00,41.4,32.7,29.93,WNW,296,3.0,25.0,71,0.00,,,0.00,Wunderground v.1.15,2013-01-20 03:47:00,
2013-01-19 22:50:00,41.4,32.7,29.93,WSW,238,4.0,25.0,71,0.00,,,0.00,Wunderground v.1.15,2013-01-20 03:50:00,
2013-01-19 22:55:00,41.5,32.8,29.93,WNW,284,4.0,25.0,71,0.00,,,0.00,Wunderground v.1.15,2013-01-20 03:55:00,
2013-01-19 23:04:00,41.7,33.0,29.93,WNW,298,5.0,25.0,71,0.00,,,0.00,Wunderground v.1.15,2013-01-20 04:04:00,
2013-01-19 23:05:00,41.7,33.0,29.92,West,269,5.0,25.0,71,0.00,,,0.00,Wunderground v.1.15,2013-01-20 04:05:00,
2013-01-19 23:11:00,41.7,33.0,29.92,WNW,284,5.0,25.0,71,0.00,,,0.00,Wunderground v.1.15,2013-01-20 04:11:00,
2013-01-19 23:12:00,41.7,33.0,29.92,West,274,5.0,25.0,71,0.00,,,0.00,Wunderground v.1.15,2013-01-20 04:12:00,
2013-01-19 23:16:00,41.7,33.0,29.92,WNW,290,5.0,25.0,71,0.00,,,0.00,Wunderground v.1.15,2013-01-20 04:16:00,
2013-01-19 23:17:00,41.7,33.0,29.91,WNW,286,5.0,25.0,71,0.00,,,0.00,Wunderground v.1.15,2013-01-20 04:17:00,
2013-01-19 23:21:00,41.8,33.1,29.91,WNW,287,6.0,7.0,71,0.00,,,0.00,Wunderground v.1.15,2013-01-20 04:21:00,
2013-01-19 23:22:00,41.8,33.1,29.91,WNW,283,6.0,25.0,71,0.00,,,0.00,Wunderground v.1.15,2013-01-20 04:22:00,
2013-01-19 23:26:00,41.9,33.2,29.91,SW,224,6.0,25.0,71,0.00,,,0.00,Wunderground v.1.15,2013-01-20 04:26:00,
2013-01-19 23:29:00,42.0,33.3,29.91,West,275,6.0,25.0,71,0.00,,,0.00,Wunderground v.1.15,2013-01-20 04:29:00,
2013-01-19 23:32:00,42.0,33.3,29.91,WSW,240,6.0,25.0,71,0.00,,,0.00,Wunderground v.1.15,2013-01-20 04:32:00,
2013-01-19 23:37:00,42.1,33.4,29.90,WSW,249,6.0,25.0,71,0.00,,,0.00,Wunderground v.1.15,2013-01-20 04:37:00,
2013-01-19 23:38:00,42.1,33.4,29.90,West,271,6.0,25.0,71,0.00,,,0.00,Wunderground v.1.15,2013-01-20 04:38:00,
2013-01-19 23:44:00,42.2,33.5,29.90,WNW,290,6.0,25.0,71,0.00,,,0.00,Wunderground v.1.15,2013-01-20 04:44:00,
2013-01-19 23:46:00,42.1,33.4,29.90,WNW,284,6.0,25.0,71,0.00,,,0.00,Wunderground v.1.15,2013-01-20 04:46:00,
2013-01-19 23:50:00,42.2,33.5,29.90,West,270,6.0,25.0,71,0.00,,,0.00,Wunderground v.1.15,2013-01-20 04:50:00,
2013-01-19 23:51:00,42.2,33.5,29.90,WSW,243,6.0,25.0,71,0.00,,,0.00,Wunderground v.1.15,2013-01-20 04:51:00,
2013-01-19 23:57:00,42.2,33.5,29.90,WSW,254,7.0,25.0,71,0.00,,,0.00,Wunderground v.1.15,2013-01-20 04:57:00,